sensor_id;sensor_type;location;lat;lon;timestamp;temperature;humidity
27978;DHT22;15314;49.248;6.968;2022-12-18T00:00:58;-5.00;97.10
27978;DHT22;15314;49.248;6.968;2022-12-18T00:01:59;-5.00;97.10
27978;DHT22;15314;49.248;6.968;2022-12-18T00:02:59;-4.90;97.10
27978;DHT22;15314;49.248;6.968;2022-12-18T00:04:03;-4.90;97.00
27978;DHT22;15314;49.248;6.968;2022-12-18T00:05:05;-4.90;96.90
27978;DHT22;15314;49.248;6.968;2022-12-18T00:06:06;-5.00;96.90
27978;DHT22;15314;49.248;6.968;2022-12-18T00:07:08;-5.00;97.00
27978;DHT22;15314;49.248;6.968;2022-12-18T00:08:09;-5.00;97.00
27978;DHT22;15314;49.248;6.968;2022-12-18T00:09:09;-5.00;96.90
27978;DHT22;15314;49.248;6.968;2022-12-18T00:10:10;-5.00;97.00
27978;DHT22;15314;49.248;6.968;2022-12-18T00:11:14;-5.00;97.20
27978;DHT22;15314;49.248;6.968;2022-12-18T00:12:14;-5.10;97.00
27978;DHT22;15314;49.248;6.968;2022-12-18T00:13:15;-5.00;97.10
27978;DHT22;15314;49.248;6.968;2022-12-18T00:14:16;-5.00;97.10
27978;DHT22;15314;49.248;6.968;2022-12-18T00:15:16;-5.00;97.10
27978;DHT22;15314;49.248;6.968;2022-12-18T00:16:19;-5.10;97.20
27978;DHT22;15314;49.248;6.968;2022-12-18T00:17:21;-5.10;97.40
27978;DHT22;15314;49.248;6.968;2022-12-18T00:18:21;-5.10;97.40
27978;DHT22;15314;49.248;6.968;2022-12-18T00:19:22;-5.10;97.40
27978;DHT22;15314;49.248;6.968;2022-12-18T00:20:22;-5.10;97.20
27978;DHT22;15314;49.248;6.968;2022-12-18T00:21:27;-5.10;97.30
27978;DHT22;15314;49.248;6.968;2022-12-18T00:22:28;-5.10;97.30
27978;DHT22;15314;49.248;6.968;2022-12-18T00:23:29;-5.10;97.40
27978;DHT22;15314;49.248;6.968;2022-12-18T00:24:30;-5.10;97.30
27978;DHT22;15314;49.248;6.968;2022-12-18T00:25:41;-5.10;97.30
27978;DHT22;15314;49.248;6.968;2022-12-18T00:26:42;-5.10;97.30
27978;DHT22;15314;49.248;6.968;2022-12-18T00:27:43;-5.00;97.10
27978;DHT22;15314;49.248;6.968;2022-12-18T00:28:45;-5.00;97.00
27978;DHT22;15314;49.248;6.968;2022-12-18T00:29:45;-5.00;97.00
27978;DHT22;15314;49.248;6.968;2022-12-18T00:30:46;-5.10;96.90
27978;DHT22;15314;49.248;6.968;2022-12-18T00:31:47;-5.00;97.00
27978;DHT22;15314;49.248;6.968;2022-12-18T00:32:47;-5.00;97.10
27978;DHT22;15314;49.248;6.968;2022-12-18T00:33:48;-5.00;97.20
27978;DHT22;15314;49.248;6.968;2022-12-18T00:34:49;-5.00;97.10
27978;DHT22;15314;49.248;6.968;2022-12-18T00:35:50;-5.00;97.00
27978;DHT22;15314;49.248;6.968;2022-12-18T00:36:50;-5.00;97.00
27978;DHT22;15314;49.248;6.968;2022-12-18T00:37:51;-5.00;97.00
27978;DHT22;15314;49.248;6.968;2022-12-18T00:38:53;-5.00;97.00
27978;DHT22;15314;49.248;6.968;2022-12-18T00:39:54;-5.00;97.10
27978;DHT22;15314;49.248;6.968;2022-12-18T00:40:54;-5.00;96.80
27978;DHT22;15314;49.248;6.968;2022-12-18T00:41:55;-5.00;96.60
27978;DHT22;15314;49.248;6.968;2022-12-18T00:43:14;-5.00;96.70
27978;DHT22;15314;49.248;6.968;2022-12-18T00:44:16;-5.00;96.60
27978;DHT22;15314;49.248;6.968;2022-12-18T00:45:17;-5.00;96.60
27978;DHT22;15314;49.248;6.968;2022-12-18T00:46:18;-5.10;96.60
27978;DHT22;15314;49.248;6.968;2022-12-18T00:47:18;-5.00;96.60
27978;DHT22;15314;49.248;6.968;2022-12-18T00:48:21;-5.10;96.60
27978;DHT22;15314;49.248;6.968;2022-12-18T00:49:21;-5.10;96.60
27978;DHT22;15314;49.248;6.968;2022-12-18T00:50:23;-5.10;96.60
27978;DHT22;15314;49.248;6.968;2022-12-18T00:51:25;-5.10;96.90
27978;DHT22;15314;49.248;6.968;2022-12-18T00:52:25;-5.10;96.80
27978;DHT22;15314;49.248;6.968;2022-12-18T00:53:26;-5.10;96.80
27978;DHT22;15314;49.248;6.968;2022-12-18T00:54:27;-5.10;96.90
27978;DHT22;15314;49.248;6.968;2022-12-18T00:55:31;-5.10;97.10
27978;DHT22;15314;49.248;6.968;2022-12-18T00:56:32;-5.10;97.20
27978;DHT22;15314;49.248;6.968;2022-12-18T00:57:32;-5.20;97.20
27978;DHT22;15314;49.248;6.968;2022-12-18T00:58:38;-5.20;97.00
27978;DHT22;15314;49.248;6.968;2022-12-18T00:59:39;-5.00;97.10
27978;DHT22;15314;49.248;6.968;2022-12-18T01:00:40;-5.00;96.90
27978;DHT22;15314;49.248;6.968;2022-12-18T01:01:41;-5.10;96.90
27978;DHT22;15314;49.248;6.968;2022-12-18T01:02:41;-5.10;97.00
27978;DHT22;15314;49.248;6.968;2022-12-18T01:03:42;-5.00;96.80
27978;DHT22;15314;49.248;6.968;2022-12-18T01:04:43;-5.10;96.90
27978;DHT22;15314;49.248;6.968;2022-12-18T01:05:43;-5.10;97.00
27978;DHT22;15314;49.248;6.968;2022-12-18T01:06:44;-5.10;96.90
27978;DHT22;15314;49.248;6.968;2022-12-18T01:07:45;-5.00;96.90
27978;DHT22;15314;49.248;6.968;2022-12-18T01:08:45;-5.10;96.80
27978;DHT22;15314;49.248;6.968;2022-12-18T01:09:46;-5.00;96.80
27978;DHT22;15314;49.248;6.968;2022-12-18T01:10:46;-5.00;96.70
27978;DHT22;15314;49.248;6.968;2022-12-18T01:11:47;-5.00;96.60
27978;DHT22;15314;49.248;6.968;2022-12-18T01:12:48;-4.90;96.50
27978;DHT22;15314;49.248;6.968;2022-12-18T01:13:48;-4.90;96.50
27978;DHT22;15314;49.248;6.968;2022-12-18T01:14:49;-4.90;96.60
27978;DHT22;15314;49.248;6.968;2022-12-18T01:15:50;-4.90;96.40
27978;DHT22;15314;49.248;6.968;2022-12-18T01:16:51;-4.80;96.40
27978;DHT22;15314;49.248;6.968;2022-12-18T01:17:53;-4.70;96.30
27978;DHT22;15314;49.248;6.968;2022-12-18T01:18:54;-4.70;96.20
27978;DHT22;15314;49.248;6.968;2022-12-18T01:19:55;-4.70;96.20
27978;DHT22;15314;49.248;6.968;2022-12-18T01:20:57;-4.70;95.90
27978;DHT22;15314;49.248;6.968;2022-12-18T01:21:59;-4.70;95.90
27978;DHT22;15314;49.248;6.968;2022-12-18T01:23:00;-4.60;96.00
27978;DHT22;15314;49.248;6.968;2022-12-18T01:24:01;-4.60;95.60
27978;DHT22;15314;49.248;6.968;2022-12-18T01:25:02;-4.60;95.50
27978;DHT22;15314;49.248;6.968;2022-12-18T01:26:08;-4.60;95.80
27978;DHT22;15314;49.248;6.968;2022-12-18T01:27:09;-4.60;95.80
27978;DHT22;15314;49.248;6.968;2022-12-18T01:28:09;-4.60;95.40
27978;DHT22;15314;49.248;6.968;2022-12-18T01:29:10;-4.60;95.60
27978;DHT22;15314;49.248;6.968;2022-12-18T01:30:11;-4.60;95.60
27978;DHT22;15314;49.248;6.968;2022-12-18T01:31:20;-4.60;95.50
27978;DHT22;15314;49.248;6.968;2022-12-18T01:32:21;-4.70;95.80
27978;DHT22;15314;49.248;6.968;2022-12-18T01:33:22;-4.80;95.80
27978;DHT22;15314;49.248;6.968;2022-12-18T01:34:23;-4.80;96.00
27978;DHT22;15314;49.248;6.968;2022-12-18T01:35:24;-4.80;95.80
27978;DHT22;15314;49.248;6.968;2022-12-18T01:36:30;-4.80;95.90
27978;DHT22;15314;49.248;6.968;2022-12-18T01:37:31;-4.80;96.10
27978;DHT22;15314;49.248;6.968;2022-12-18T01:38:31;-4.80;96.00
27978;DHT22;15314;49.248;6.968;2022-12-18T01:39:33;-4.70;95.80
27978;DHT22;15314;49.248;6.968;2022-12-18T01:40:33;-4.70;95.90
27978;DHT22;15314;49.248;6.968;2022-12-18T01:41:35;-4.80;95.90
27978;DHT22;15314;49.248;6.968;2022-12-18T01:42:55;-4.80;96.00
27978;DHT22;15314;49.248;6.968;2022-12-18T01:43:57;-4.70;95.70
27978;DHT22;15314;49.248;6.968;2022-12-18T01:46:04;-4.70;95.80
27978;DHT22;15314;49.248;6.968;2022-12-18T01:47:05;-4.80;95.60
27978;DHT22;15314;49.248;6.968;2022-12-18T01:48:07;-4.80;95.50
27978;DHT22;15314;49.248;6.968;2022-12-18T01:49:09;-4.80;95.50
27978;DHT22;15314;49.248;6.968;2022-12-18T01:50:31;-4.80;95.50
27978;DHT22;15314;49.248;6.968;2022-12-18T01:51:32;-4.90;95.60
27978;DHT22;15314;49.248;6.968;2022-12-18T01:52:33;-4.80;95.60
27978;DHT22;15314;49.248;6.968;2022-12-18T01:53:36;-4.90;95.60
27978;DHT22;15314;49.248;6.968;2022-12-18T01:54:37;-5.00;95.50
27978;DHT22;15314;49.248;6.968;2022-12-18T01:55:57;-5.00;95.60
27978;DHT22;15314;49.248;6.968;2022-12-18T01:56:58;-5.10;95.80
27978;DHT22;15314;49.248;6.968;2022-12-18T01:57:59;-5.10;95.80
27978;DHT22;15314;49.248;6.968;2022-12-18T01:59:06;-5.20;96.10
27978;DHT22;15314;49.248;6.968;2022-12-18T02:00:12;-5.20;96.10
27978;DHT22;15314;49.248;6.968;2022-12-18T02:01:13;-5.20;96.00
27978;DHT22;15314;49.248;6.968;2022-12-18T02:02:15;-5.30;96.00
27978;DHT22;15314;49.248;6.968;2022-12-18T02:03:16;-5.30;96.20
27978;DHT22;15314;49.248;6.968;2022-12-18T02:04:25;-5.30;96.20
27978;DHT22;15314;49.248;6.968;2022-12-18T02:05:48;-5.30;96.20
27978;DHT22;15314;49.248;6.968;2022-12-18T02:07:14;-5.40;96.10
27978;DHT22;15314;49.248;6.968;2022-12-18T02:09:28;-5.40;96.30
27978;DHT22;15314;49.248;6.968;2022-12-18T02:10:34;-5.50;96.50
27978;DHT22;15314;49.248;6.968;2022-12-18T02:11:49;-5.40;96.50
27978;DHT22;15314;49.248;6.968;2022-12-18T02:13:06;-5.50;96.50
27978;DHT22;15314;49.248;6.968;2022-12-18T02:15:27;-5.50;96.60
27978;DHT22;15314;49.248;6.968;2022-12-18T02:16:43;-5.50;96.60
27978;DHT22;15314;49.248;6.968;2022-12-18T02:18:07;-5.50;96.80
27978;DHT22;15314;49.248;6.968;2022-12-18T02:24:37;-5.60;96.80
27978;DHT22;15314;49.248;6.968;2022-12-18T02:27:18;-5.50;96.60
27978;DHT22;15314;49.248;6.968;2022-12-18T02:28:21;-5.50;96.70
27978;DHT22;15314;49.248;6.968;2022-12-18T02:29:24;-5.60;96.50
27978;DHT22;15314;49.248;6.968;2022-12-18T02:30:31;-5.60;96.50
27978;DHT22;15314;49.248;6.968;2022-12-18T02:31:39;-5.60;96.50
27978;DHT22;15314;49.248;6.968;2022-12-18T02:32:45;-5.60;96.50
27978;DHT22;15314;49.248;6.968;2022-12-18T02:33:48;-5.60;96.50
27978;DHT22;15314;49.248;6.968;2022-12-18T02:34:51;-5.60;96.50
27978;DHT22;15314;49.248;6.968;2022-12-18T02:35:54;-5.60;96.50
27978;DHT22;15314;49.248;6.968;2022-12-18T02:36:57;-5.60;96.40
27978;DHT22;15314;49.248;6.968;2022-12-18T02:37:58;-5.60;96.50
27978;DHT22;15314;49.248;6.968;2022-12-18T02:39:01;-5.60;96.50
27978;DHT22;15314;49.248;6.968;2022-12-18T02:40:04;-5.60;96.60
27978;DHT22;15314;49.248;6.968;2022-12-18T02:41:05;-5.70;96.70
27978;DHT22;15314;49.248;6.968;2022-12-18T02:42:06;-5.80;96.70
27978;DHT22;15314;49.248;6.968;2022-12-18T02:43:10;-5.80;96.70
27978;DHT22;15314;49.248;6.968;2022-12-18T02:44:13;-5.80;96.70
27978;DHT22;15314;49.248;6.968;2022-12-18T02:45:13;-5.80;96.80
27978;DHT22;15314;49.248;6.968;2022-12-18T02:47:31;-5.80;97.20
27978;DHT22;15314;49.248;6.968;2022-12-18T02:48:34;-5.80;96.60
27978;DHT22;15314;49.248;6.968;2022-12-18T02:52:35;-5.90;96.90
27978;DHT22;15314;49.248;6.968;2022-12-18T02:54:05;-5.90;96.90
27978;DHT22;15314;49.248;6.968;2022-12-18T02:55:24;-6.00;96.70
27978;DHT22;15314;49.248;6.968;2022-12-18T02:56:29;-5.90;96.80
27978;DHT22;15314;49.248;6.968;2022-12-18T02:59:12;-6.00;97.00
27978;DHT22;15314;49.248;6.968;2022-12-18T03:00:14;-6.00;97.00
27978;DHT22;15314;49.248;6.968;2022-12-18T03:01:19;-6.10;97.00
27978;DHT22;15314;49.248;6.968;2022-12-18T03:02:33;-6.00;97.10
27978;DHT22;15314;49.248;6.968;2022-12-18T03:03:42;-6.10;97.00
27978;DHT22;15314;49.248;6.968;2022-12-18T03:06:14;-6.10;97.40
27978;DHT22;15314;49.248;6.968;2022-12-18T03:07:27;-6.10;97.50
27978;DHT22;15314;49.248;6.968;2022-12-18T03:08:37;-6.20;97.30
27978;DHT22;15314;49.248;6.968;2022-12-18T03:09:42;-6.20;97.30
27978;DHT22;15314;49.248;6.968;2022-12-18T03:10:54;-6.10;97.30
27978;DHT22;15314;49.248;6.968;2022-12-18T03:12:12;-6.10;97.10
27978;DHT22;15314;49.248;6.968;2022-12-18T03:13:28;-6.10;97.00
27978;DHT22;15314;49.248;6.968;2022-12-18T03:14:32;-6.10;97.10
27978;DHT22;15314;49.248;6.968;2022-12-18T03:15:38;-6.10;97.30
27978;DHT22;15314;49.248;6.968;2022-12-18T03:16:41;-6.10;97.20
27978;DHT22;15314;49.248;6.968;2022-12-18T03:17:48;-6.20;97.30
27978;DHT22;15314;49.248;6.968;2022-12-18T03:18:54;-6.10;97.50
27978;DHT22;15314;49.248;6.968;2022-12-18T03:19:59;-6.10;97.20
27978;DHT22;15314;49.248;6.968;2022-12-18T03:21:05;-6.10;97.20
27978;DHT22;15314;49.248;6.968;2022-12-18T03:22:07;-6.10;97.10
27978;DHT22;15314;49.248;6.968;2022-12-18T03:23:11;-6.10;97.00
27978;DHT22;15314;49.248;6.968;2022-12-18T03:24:15;-6.10;97.30
27978;DHT22;15314;49.248;6.968;2022-12-18T03:25:20;-6.10;96.90
27978;DHT22;15314;49.248;6.968;2022-12-18T03:26:24;-6.10;96.90
27978;DHT22;15314;49.248;6.968;2022-12-18T03:27:27;-6.10;97.00
27978;DHT22;15314;49.248;6.968;2022-12-18T03:28:31;-6.10;96.90
27978;DHT22;15314;49.248;6.968;2022-12-18T03:29:38;-6.10;96.80
27978;DHT22;15314;49.248;6.968;2022-12-18T03:30:40;-6.10;96.80
27978;DHT22;15314;49.248;6.968;2022-12-18T03:31:44;-6.20;96.80
27978;DHT22;15314;49.248;6.968;2022-12-18T03:34:17;-6.20;97.00
27978;DHT22;15314;49.248;6.968;2022-12-18T03:35:24;-6.20;96.80
27978;DHT22;15314;49.248;6.968;2022-12-18T03:36:27;-6.10;96.70
27978;DHT22;15314;49.248;6.968;2022-12-18T03:37:31;-6.10;96.60
27978;DHT22;15314;49.248;6.968;2022-12-18T03:38:32;-6.10;96.60
27978;DHT22;15314;49.248;6.968;2022-12-18T03:39:34;-6.10;96.50
27978;DHT22;15314;49.248;6.968;2022-12-18T03:40:55;-6.10;96.60
27978;DHT22;15314;49.248;6.968;2022-12-18T03:42:24;-6.10;96.50
27978;DHT22;15314;49.248;6.968;2022-12-18T03:45:39;-6.00;96.60
27978;DHT22;15314;49.248;6.968;2022-12-18T03:48:04;-6.10;96.40
27978;DHT22;15314;49.248;6.968;2022-12-18T03:50:29;-6.00;96.50
27978;DHT22;15314;49.248;6.968;2022-12-18T03:51:40;-6.10;96.60
27978;DHT22;15314;49.248;6.968;2022-12-18T03:53:58;-6.20;96.60
27978;DHT22;15314;49.248;6.968;2022-12-18T03:55:01;-6.20;96.80
27978;DHT22;15314;49.248;6.968;2022-12-18T03:56:03;-6.30;96.70
27978;DHT22;15314;49.248;6.968;2022-12-18T03:57:09;-6.00;96.90
27978;DHT22;15314;49.248;6.968;2022-12-18T03:58:14;-6.30;97.00
27978;DHT22;15314;49.248;6.968;2022-12-18T03:59:19;-6.30;96.90
27978;DHT22;15314;49.248;6.968;2022-12-18T04:00:20;-6.30;97.00
27978;DHT22;15314;49.248;6.968;2022-12-18T04:01:25;-6.30;96.90
27978;DHT22;15314;49.248;6.968;2022-12-18T04:02:29;-6.30;96.90
27978;DHT22;15314;49.248;6.968;2022-12-18T04:03:32;-6.30;96.90
27978;DHT22;15314;49.248;6.968;2022-12-18T04:04:35;-6.40;97.10
27978;DHT22;15314;49.248;6.968;2022-12-18T04:05:37;-6.40;97.20
27978;DHT22;15314;49.248;6.968;2022-12-18T04:06:39;-6.40;97.20
27978;DHT22;15314;49.248;6.968;2022-12-18T04:07:41;-6.30;97.20
27978;DHT22;15314;49.248;6.968;2022-12-18T04:08:42;-6.30;97.10
27978;DHT22;15314;49.248;6.968;2022-12-18T04:09:45;-6.30;97.10
27978;DHT22;15314;49.248;6.968;2022-12-18T04:10:46;-6.30;97.20
27978;DHT22;15314;49.248;6.968;2022-12-18T04:11:47;-6.30;97.10
27978;DHT22;15314;49.248;6.968;2022-12-18T04:12:48;-6.30;97.10
27978;DHT22;15314;49.248;6.968;2022-12-18T04:13:48;-6.20;97.10
27978;DHT22;15314;49.248;6.968;2022-12-18T04:14:49;-6.30;96.90
27978;DHT22;15314;49.248;6.968;2022-12-18T04:15:49;-6.30;96.90
27978;DHT22;15314;49.248;6.968;2022-12-18T04:16:50;-6.30;97.00
27978;DHT22;15314;49.248;6.968;2022-12-18T04:17:51;-6.40;97.00
27978;DHT22;15314;49.248;6.968;2022-12-18T04:18:52;-6.20;97.10
27978;DHT22;15314;49.248;6.968;2022-12-18T04:19:53;-6.30;97.20
27978;DHT22;15314;49.248;6.968;2022-12-18T04:20:53;-6.40;97.10
27978;DHT22;15314;49.248;6.968;2022-12-18T04:21:54;-6.40;97.00
27978;DHT22;15314;49.248;6.968;2022-12-18T04:22:55;-6.40;97.10
27978;DHT22;15314;49.248;6.968;2022-12-18T04:23:55;-6.40;97.10
27978;DHT22;15314;49.248;6.968;2022-12-18T04:24:56;-6.40;97.20
27978;DHT22;15314;49.248;6.968;2022-12-18T04:25:57;-6.50;97.20
27978;DHT22;15314;49.248;6.968;2022-12-18T04:26:57;-6.50;97.30
27978;DHT22;15314;49.248;6.968;2022-12-18T04:27:58;-6.40;97.40
27978;DHT22;15314;49.248;6.968;2022-12-18T04:28:58;-6.40;97.30
27978;DHT22;15314;49.248;6.968;2022-12-18T04:29:59;-6.40;97.30
27978;DHT22;15314;49.248;6.968;2022-12-18T04:30:59;-6.30;97.20
27978;DHT22;15314;49.248;6.968;2022-12-18T04:32:00;-6.40;97.00
27978;DHT22;15314;49.248;6.968;2022-12-18T04:33:01;-6.40;97.00
27978;DHT22;15314;49.248;6.968;2022-12-18T04:34:01;-6.40;96.90
27978;DHT22;15314;49.248;6.968;2022-12-18T04:35:03;-6.40;97.00
27978;DHT22;15314;49.248;6.968;2022-12-18T04:36:04;-6.30;97.20
27978;DHT22;15314;49.248;6.968;2022-12-18T04:37:05;-6.30;97.10
27978;DHT22;15314;49.248;6.968;2022-12-18T04:38:08;-6.40;97.00
27978;DHT22;15314;49.248;6.968;2022-12-18T04:39:09;-6.30;97.30
27978;DHT22;15314;49.248;6.968;2022-12-18T04:40:10;-6.40;97.10
27978;DHT22;15314;49.248;6.968;2022-12-18T04:41:11;-6.30;97.10
27978;DHT22;15314;49.248;6.968;2022-12-18T04:42:11;-6.40;97.00
27978;DHT22;15314;49.248;6.968;2022-12-18T04:43:12;-6.40;97.00
27978;DHT22;15314;49.248;6.968;2022-12-18T04:44:13;-6.40;96.90
27978;DHT22;15314;49.248;6.968;2022-12-18T04:45:13;-6.40;97.20
27978;DHT22;15314;49.248;6.968;2022-12-18T04:46:14;-6.30;97.10
27978;DHT22;15314;49.248;6.968;2022-12-18T04:47:14;-6.40;97.00
27978;DHT22;15314;49.248;6.968;2022-12-18T04:48:15;-6.40;97.00
27978;DHT22;15314;49.248;6.968;2022-12-18T04:49:16;-6.40;97.00
27978;DHT22;15314;49.248;6.968;2022-12-18T04:50:17;-6.40;97.00
27978;DHT22;15314;49.248;6.968;2022-12-18T04:51:17;-6.40;96.90
27978;DHT22;15314;49.248;6.968;2022-12-18T04:52:18;-6.40;97.00
27978;DHT22;15314;49.248;6.968;2022-12-18T04:53:18;-6.40;96.90
27978;DHT22;15314;49.248;6.968;2022-12-18T04:54:19;-6.20;96.90
27978;DHT22;15314;49.248;6.968;2022-12-18T04:55:20;-6.40;96.80
27978;DHT22;15314;49.248;6.968;2022-12-18T04:56:21;-6.40;96.90
27978;DHT22;15314;49.248;6.968;2022-12-18T04:57:21;-6.40;97.10
27978;DHT22;15314;49.248;6.968;2022-12-18T04:58:22;-6.40;96.80
27978;DHT22;15314;49.248;6.968;2022-12-18T04:59:23;-6.40;96.80
27978;DHT22;15314;49.248;6.968;2022-12-18T05:00:24;-6.40;96.90
27978;DHT22;15314;49.248;6.968;2022-12-18T05:01:24;-6.50;96.80
27978;DHT22;15314;49.248;6.968;2022-12-18T05:02:25;-6.50;97.10
27978;DHT22;15314;49.248;6.968;2022-12-18T05:03:26;-6.50;97.20
27978;DHT22;15314;49.248;6.968;2022-12-18T05:04:27;-6.50;96.90
27978;DHT22;15314;49.248;6.968;2022-12-18T05:05:27;-6.40;97.00
27978;DHT22;15314;49.248;6.968;2022-12-18T05:06:28;-6.50;96.90
27978;DHT22;15314;49.248;6.968;2022-12-18T05:07:29;-6.50;97.00
27978;DHT22;15314;49.248;6.968;2022-12-18T05:08:29;-6.50;97.10
27978;DHT22;15314;49.248;6.968;2022-12-18T05:09:30;-6.50;97.20
27978;DHT22;15314;49.248;6.968;2022-12-18T05:10:31;-6.30;97.40
27978;DHT22;15314;49.248;6.968;2022-12-18T05:11:31;-6.50;97.20
27978;DHT22;15314;49.248;6.968;2022-12-18T05:12:32;-6.50;97.20
27978;DHT22;15314;49.248;6.968;2022-12-18T05:13:33;-6.50;97.20
27978;DHT22;15314;49.248;6.968;2022-12-18T05:14:35;-6.50;97.30
27978;DHT22;15314;49.248;6.968;2022-12-18T05:15:35;-6.50;97.20
27978;DHT22;15314;49.248;6.968;2022-12-18T05:16:36;-6.50;97.20
27978;DHT22;15314;49.248;6.968;2022-12-18T05:17:37;-6.50;97.20
27978;DHT22;15314;49.248;6.968;2022-12-18T05:18:37;-6.40;97.30
27978;DHT22;15314;49.248;6.968;2022-12-18T05:19:38;-6.50;97.10
27978;DHT22;15314;49.248;6.968;2022-12-18T05:20:39;-6.50;97.10
27978;DHT22;15314;49.248;6.968;2022-12-18T05:21:39;-6.30;97.20
27978;DHT22;15314;49.248;6.968;2022-12-18T05:22:40;-6.50;97.20
27978;DHT22;15314;49.248;6.968;2022-12-18T05:23:41;-6.50;97.20
27978;DHT22;15314;49.248;6.968;2022-12-18T05:24:41;-6.50;97.40
27978;DHT22;15314;49.248;6.968;2022-12-18T05:25:42;-6.50;97.40
27978;DHT22;15314;49.248;6.968;2022-12-18T05:26:49;-6.50;97.30
27978;DHT22;15314;49.248;6.968;2022-12-18T05:27:50;-6.30;97.30
27978;DHT22;15314;49.248;6.968;2022-12-18T05:28:51;-6.50;97.40
27978;DHT22;15314;49.248;6.968;2022-12-18T05:29:51;-6.40;97.30
27978;DHT22;15314;49.248;6.968;2022-12-18T05:30:55;-6.40;97.20
27978;DHT22;15314;49.248;6.968;2022-12-18T05:31:56;-6.40;97.10
27978;DHT22;15314;49.248;6.968;2022-12-18T05:32:57;-6.40;97.00
27978;DHT22;15314;49.248;6.968;2022-12-18T05:33:58;-6.40;97.10
27978;DHT22;15314;49.248;6.968;2022-12-18T05:34:59;-6.50;97.10
27978;DHT22;15314;49.248;6.968;2022-12-18T05:36:01;-6.50;97.10
27978;DHT22;15314;49.248;6.968;2022-12-18T05:37:02;-6.50;97.30
27978;DHT22;15314;49.248;6.968;2022-12-18T05:38:02;-6.60;97.30
27978;DHT22;15314;49.248;6.968;2022-12-18T05:39:03;-6.60;97.40
27978;DHT22;15314;49.248;6.968;2022-12-18T05:40:04;-6.60;97.40
27978;DHT22;15314;49.248;6.968;2022-12-18T05:41:06;-6.60;97.40
27978;DHT22;15314;49.248;6.968;2022-12-18T05:42:07;-6.50;97.60
27978;DHT22;15314;49.248;6.968;2022-12-18T05:43:08;-6.60;97.00
27978;DHT22;15314;49.248;6.968;2022-12-18T05:44:08;-6.60;97.10
27978;DHT22;15314;49.248;6.968;2022-12-18T05:45:09;-6.60;97.20
27978;DHT22;15314;49.248;6.968;2022-12-18T05:46:15;-6.70;97.20
27978;DHT22;15314;49.248;6.968;2022-12-18T05:47:16;-6.70;97.30
27978;DHT22;15314;49.248;6.968;2022-12-18T05:48:17;-6.70;97.30
27978;DHT22;15314;49.248;6.968;2022-12-18T05:49:18;-6.70;97.40
27978;DHT22;15314;49.248;6.968;2022-12-18T05:50:18;-6.70;97.50
27978;DHT22;15314;49.248;6.968;2022-12-18T05:51:21;-6.70;97.40
27978;DHT22;15314;49.248;6.968;2022-12-18T05:52:22;-6.50;97.60
27978;DHT22;15314;49.248;6.968;2022-12-18T05:53:23;-6.50;97.50
27978;DHT22;15314;49.248;6.968;2022-12-18T05:54:23;-6.60;98.10
27978;DHT22;15314;49.248;6.968;2022-12-18T05:55:24;-6.60;97.90
27978;DHT22;15314;49.248;6.968;2022-12-18T05:56:26;-6.60;97.90
27978;DHT22;15314;49.248;6.968;2022-12-18T05:57:27;-6.70;97.70
27978;DHT22;15314;49.248;6.968;2022-12-18T05:58:27;-6.60;97.60
27978;DHT22;15314;49.248;6.968;2022-12-18T05:59:28;-6.60;97.90
27978;DHT22;15314;49.248;6.968;2022-12-18T06:00:29;-6.60;98.00
27978;DHT22;15314;49.248;6.968;2022-12-18T06:01:30;-6.60;98.00
27978;DHT22;15314;49.248;6.968;2022-12-18T06:02:30;-6.50;98.10
27978;DHT22;15314;49.248;6.968;2022-12-18T06:03:31;-6.70;98.10
27978;DHT22;15314;49.248;6.968;2022-12-18T06:04:32;-6.70;98.10
27978;DHT22;15314;49.248;6.968;2022-12-18T06:05:42;-6.70;97.90
27978;DHT22;15314;49.248;6.968;2022-12-18T06:06:43;-6.70;97.80
27978;DHT22;15314;49.248;6.968;2022-12-18T06:07:43;-6.70;97.80
27978;DHT22;15314;49.248;6.968;2022-12-18T06:08:46;-6.70;97.70
27978;DHT22;15314;49.248;6.968;2022-12-18T06:09:46;-6.70;97.70
27978;DHT22;15314;49.248;6.968;2022-12-18T06:10:51;-6.60;97.80
27978;DHT22;15314;49.248;6.968;2022-12-18T06:11:52;-6.70;97.70
27978;DHT22;15314;49.248;6.968;2022-12-18T06:12:53;-6.70;97.70
27978;DHT22;15314;49.248;6.968;2022-12-18T06:13:55;-6.70;97.80
27978;DHT22;15314;49.248;6.968;2022-12-18T06:14:56;-6.60;97.90
27978;DHT22;15314;49.248;6.968;2022-12-18T06:15:57;-6.70;97.70
27978;DHT22;15314;49.248;6.968;2022-12-18T06:16:57;-6.50;97.60
27978;DHT22;15314;49.248;6.968;2022-12-18T06:17:59;-6.70;97.70
27978;DHT22;15314;49.248;6.968;2022-12-18T06:19:01;-6.70;97.80
27978;DHT22;15314;49.248;6.968;2022-12-18T06:20:05;-6.70;97.70
27978;DHT22;15314;49.248;6.968;2022-12-18T06:21:07;-6.70;97.80
27978;DHT22;15314;49.248;6.968;2022-12-18T06:22:07;-6.70;97.60
27978;DHT22;15314;49.248;6.968;2022-12-18T06:23:09;-6.70;97.70
27978;DHT22;15314;49.248;6.968;2022-12-18T06:24:10;-6.70;97.70
27978;DHT22;15314;49.248;6.968;2022-12-18T06:25:11;-6.60;97.60
27978;DHT22;15314;49.248;6.968;2022-12-18T06:26:13;-6.50;97.70
27978;DHT22;15314;49.248;6.968;2022-12-18T06:27:14;-6.50;97.70
27978;DHT22;15314;49.248;6.968;2022-12-18T06:28:14;-6.70;97.60
27978;DHT22;15314;49.248;6.968;2022-12-18T06:29:15;-6.70;97.60
27978;DHT22;15314;49.248;6.968;2022-12-18T06:30:15;-6.70;97.70
27978;DHT22;15314;49.248;6.968;2022-12-18T06:31:16;-6.70;97.80
27978;DHT22;15314;49.248;6.968;2022-12-18T06:32:17;-6.50;97.60
27978;DHT22;15314;49.248;6.968;2022-12-18T06:33:18;-6.70;97.50
27978;DHT22;15314;49.248;6.968;2022-12-18T06:34:18;-6.70;97.70
27978;DHT22;15314;49.248;6.968;2022-12-18T06:35:19;-6.70;97.80
27978;DHT22;15314;49.248;6.968;2022-12-18T06:36:20;-6.70;97.60
27978;DHT22;15314;49.248;6.968;2022-12-18T06:37:21;-6.70;97.70
27978;DHT22;15314;49.248;6.968;2022-12-18T06:38:25;-6.70;97.80
27978;DHT22;15314;49.248;6.968;2022-12-18T06:39:29;-6.50;97.90
27978;DHT22;15314;49.248;6.968;2022-12-18T06:40:30;-6.70;97.80
27978;DHT22;15314;49.248;6.968;2022-12-18T06:41:30;-6.70;97.90
27978;DHT22;15314;49.248;6.968;2022-12-18T06:42:31;-6.70;98.20
27978;DHT22;15314;49.248;6.968;2022-12-18T06:43:32;-6.70;98.10
27978;DHT22;15314;49.248;6.968;2022-12-18T06:44:34;-6.80;98.00
27978;DHT22;15314;49.248;6.968;2022-12-18T06:45:35;-6.70;98.10
27978;DHT22;15314;49.248;6.968;2022-12-18T06:46:35;-6.70;97.90
27978;DHT22;15314;49.248;6.968;2022-12-18T06:47:36;-6.70;97.90
27978;DHT22;15314;49.248;6.968;2022-12-18T06:48:37;-6.70;97.90
27978;DHT22;15314;49.248;6.968;2022-12-18T06:49:38;-6.70;97.80
27978;DHT22;15314;49.248;6.968;2022-12-18T06:50:42;-6.50;97.70
27978;DHT22;15314;49.248;6.968;2022-12-18T06:51:42;-6.70;98.00
27978;DHT22;15314;49.248;6.968;2022-12-18T06:52:43;-6.70;97.90
27978;DHT22;15314;49.248;6.968;2022-12-18T06:53:44;-6.70;98.00
27978;DHT22;15314;49.248;6.968;2022-12-18T06:54:45;-6.70;97.90
27978;DHT22;15314;49.248;6.968;2022-12-18T06:55:45;-6.70;98.10
27978;DHT22;15314;49.248;6.968;2022-12-18T06:56:48;-6.60;98.00
27978;DHT22;15314;49.248;6.968;2022-12-18T06:57:48;-6.80;97.90
27978;DHT22;15314;49.248;6.968;2022-12-18T06:58:49;-6.60;97.90
27978;DHT22;15314;49.248;6.968;2022-12-18T06:59:50;-6.80;98.20
27978;DHT22;15314;49.248;6.968;2022-12-18T07:00:50;-6.80;98.10
27978;DHT22;15314;49.248;6.968;2022-12-18T07:01:52;-6.70;98.00